Airport View

Enter AWOS ICAO identifier for current METAR.

ex. KFNL

KHIO 101553Z VRB03KT 10SM CLR 22/09 A3009 RMK AO2 SLP186 T02170094

10 Aug 2020 16:32

Phone: 503-640-2984

Other Area AWOS: KVUO - KSPB - KPDX - KUAO

TAF KHIO 101120Z 1012/1112 VRB03KT P6SM SKC FM102000 35008KT P6SM SKC FM110100 32011KT P6SM SKC FM110800 32004KT P6SM SKC